Time;durP1;ratioP1;P1;durP2;ratioP2;P2;SDS_P1;SDS_P2;PMS_P1;PMS_P2;Temp;Humidity;BMP_temperature;BMP_pressure;BME280_temperature;BME280_humidity;BME280_pressure;Samples;Min_cycle;Max_cycle;Signal;HPM_P1;HPM_P2
2024/04/18 00:01:14;;;;;;;221.70;86.73;;;;;7.00;95894.00;;;;5434927;26;20275;-69
2024/04/18 00:04:02;;;;;;;215.03;84.93;;;;;6.80;95888.00;;;;5444191;26;20458;-69
2024/04/18 00:06:53;;;;;;;204.57;80.57;;;4.70;99.90;6.90;95891.00;;;;5424895;26;20226;-69
2024/04/18 00:09:44;;;;;;;219.10;90.50;;;4.60;99.90;6.80;95878.00;;;;5428687;26;20467;-69
2024/04/18 00:12:34;;;;;;;204.77;80.13;;;4.60;99.90;6.70;95881.00;;;;5443511;26;20284;-68
2024/04/18 00:15:23;;;;;;;201.90;78.90;;;4.60;99.90;6.40;95884.00;;;;5443771;26;20529;-68
2024/04/18 00:18:13;;;;;;;203.23;82.40;;;4.50;99.90;6.20;95877.00;;;;5425314;26;20513;-68
2024/04/18 00:21:02;;;;;;;195.37;76.17;;;4.30;99.90;6.00;95883.00;;;;5436766;26;21137;-68
2024/04/18 00:23:54;;;;;;;205.40;79.90;;;4.20;99.90;6.10;95883.00;;;;5443596;26;20517;-69
2024/04/18 00:26:48;;;;;;;197.23;76.83;;;4.10;99.90;6.40;95880.00;;;;5432052;26;20464;-69
2024/04/18 00:29:37;;;;;;;218.30;85.87;;;4.10;99.90;6.60;95877.00;;;;5428883;26;20458;-69
2024/04/18 00:32:27;;;;;;;206.33;80.50;;;4.20;99.90;6.80;95877.00;;;;5436550;26;21091;-70
2024/04/18 00:35:15;;;;;;;210.67;82.53;;;4.20;99.90;6.80;95877.00;;;;5427634;26;20990;-69
2024/04/18 00:38:06;;;;;;;201.40;79.43;;;4.30;99.90;6.70;95876.00;;;;5429612;26;20496;-69
2024/04/18 00:40:54;;;;;;;195.20;79.13;;;4.40;99.90;6.40;95889.00;;;;5446621;26;21066;-69
2024/04/18 00:43:47;;;;;;;189.47;75.50;;;4.30;99.90;6.60;95877.00;;;;5427981;26;20859;-68
2024/04/18 00:46:36;;;;;;;189.07;76.13;;;4.30;99.90;6.20;95876.00;;;;5430457;26;20456;-69
2024/04/18 00:49:28;;;;;;;184.23;75.57;;;4.20;99.90;5.90;95867.00;;;;5431613;26;20459;-68
2024/04/18 00:52:21;;;;;;;195.73;81.30;;;4.20;99.90;6.10;95878.00;;;;5429332;26;20821;-69
2024/04/18 00:55:10;;;;;;;196.37;81.17;;;4.10;99.90;6.30;95867.00;;;;5444249;26;20533;-70
2024/04/18 00:58:01;;;;;;;190.83;79.47;;;4.10;99.90;6.40;95871.00;;;;5445625;26;20513;-69
2024/04/18 01:00:56;;;;;;;188.50;76.17;;;4.10;99.90;5.80;95870.00;;;;5436429;26;20515;-69
2024/04/18 01:03:47;;;;;;;181.57;75.30;;;4.00;99.90;5.80;95874.00;;;;5431520;26;21262;-69
2024/04/18 01:06:35;;;;;;;176.87;73.50;;;3.90;99.90;6.20;95877.00;;;;5421706;26;20520;-69
2024/04/18 01:09:26;;;;;;;172.13;71.50;;;3.90;99.90;6.40;95873.00;;;;5438467;26;20514;-69
2024/04/18 01:12:16;;;;;;;190.63;81.07;;;3.90;99.90;6.40;95870.00;;;;5443092;26;20998;-69
2024/04/18 01:15:05;;;;;;;182.57;77.90;;;4.00;99.90;6.10;95873.00;;;;5442966;26;21011;-69
2024/04/18 01:17:59;;;;;;;187.80;80.80;;;4.00;99.90;4.90;95860.00;;;;5435246;26;20454;-68
2024/04/18 01:20:47;;;;;;;185.37;74.37;;;3.80;99.90;5.20;95860.00;;;;5437548;26;20498;-69
2024/04/18 01:23:38;;;;;;;179.17;71.57;;;3.60;99.90;5.10;95864.00;;;;5445622;26;20507;-69
2024/04/18 01:26:28;;;;;;;191.67;75.87;;;3.50;99.90;5.60;95864.00;;;;5430335;26;20515;-69
2024/04/18 01:29:19;;;;;;;194.60;76.37;;;3.50;99.90;5.10;95861.00;;;;5432113;26;20461;-69
2024/04/18 01:32:10;;;;;;;198.70;79.97;;;3.50;99.90;4.90;95859.00;;;;5443286;26;20543;-69
2024/04/18 01:35:00;;;;;;;187.53;73.57;;;3.30;99.90;4.80;95861.00;;;;5423183;26;20464;-69
2024/04/18 01:37:48;;;;;;;192.90;77.80;;;3.20;99.90;4.60;95866.00;;;;5438728;26;20541;-68
2024/04/18 01:40:39;;;;;;;183.67;72.73;;;3.10;99.90;5.20;95862.00;;;;5437032;26;20464;-69
2024/04/18 01:43:29;;;;;;;180.47;72.43;;;3.10;99.90;5.50;95864.00;;;;5422290;26;20468;-69
2024/04/18 01:46:20;;;;;;;181.87;73.90;;;3.10;99.90;5.60;95866.00;;;;5439327;26;21050;-69
2024/04/18 01:49:08;;;;;;;185.33;75.10;;;3.20;99.90;5.70;95875.00;;;;5419220;26;20868;-68
2024/04/18 01:51:59;;;;;;;182.47;73.73;;;3.20;99.90;5.70;95881.00;;;;5443547;26;20466;-69
2024/04/18 01:54:47;;;;;;;180.07;71.77;;;3.30;99.90;5.40;95887.00;;;;5440885;26;20529;-69
2024/04/18 01:57:38;;;;;;;195.53;79.73;;;3.30;99.90;4.80;95887.00;;;;5429446;26;20545;-69
2024/04/18 02:00:29;;;;;;;182.53;72.13;;;3.20;99.90;4.80;95878.00;;;;5427833;26;21081;-69
2024/04/18 02:03:19;;;;;;;180.77;73.43;;;3.10;99.90;4.90;95885.00;;;;5432564;26;20545;-69
2024/04/18 02:06:07;;;;;;;198.00;77.50;;;3.00;99.90;5.00;95872.00;;;;5420403;26;20539;-69
2024/04/18 02:08:58;;;;;;;187.33;72.60;;;3.00;99.90;5.10;95882.00;;;;5445101;26;20531;-69
2024/04/18 02:11:46;;;;;;;189.37;73.63;;;3.00;99.90;4.90;95886.00;;;;5440822;26;20470;-69
2024/04/18 02:14:36;;;;;;;184.53;73.20;;;3.00;99.90;4.70;95884.00;;;;5437872;26;20555;-69
2024/04/18 02:17:27;;;;;;;199.53;79.73;;;2.90;99.90;4.60;95879.00;;;;5421062;26;20468;-69
2024/04/18 02:20:18;;;;;;;197.67;77.10;;;2.80;99.90;4.20;95881.00;;;;5419371;26;21131;-69
2024/04/18 02:23:06;;;;;;;189.27;74.27;;;2.70;99.90;4.70;95890.00;;;;5440273;26;20525;-68
2024/04/18 02:25:56;;;;;;;191.93;71.77;;;2.60;99.90;5.20;95904.00;;;;5436630;26;20459;-68
2024/04/18 02:28:47;;;;;;;197.43;73.50;;;2.70;99.90;4.90;95894.00;;;;5431215;26;20456;-69
2024/04/18 02:31:39;;;;;;;180.80;68.03;;;2.70;99.90;4.80;95907.00;;;;5418684;26;20515;-69
2024/04/18 02:34:30;;;;;;;185.93;69.13;;;2.80;99.90;5.10;95895.00;;;;5421514;26;20511;-69
2024/04/18 02:37:20;;;;;;;201.83;78.33;;;2.80;99.90;4.90;95897.00;;;;5440084;26;20466;-69
2024/04/18 02:40:11;;;;;;;199.60;74.77;;;2.80;99.90;4.50;95899.00;;;;5424409;26;20814;-69
2024/04/18 02:43:01;;;;;;;190.13;71.37;;;2.70;99.90;4.60;95898.00;;;;5443814;26;22058;-68
2024/04/18 02:45:49;;;;;;;190.90;72.20;;;2.60;99.90;4.80;95892.00;;;;5435245;26;20467;-69
2024/04/18 02:48:40;;;;;;;192.97;71.83;;;2.60;99.90;4.80;95909.00;;;;5433774;26;20460;-69
2024/04/18 02:51:31;;;;;;;195.70;71.50;;;2.60;99.90;4.70;95906.00;;;;5434818;26;20537;-68
2024/04/18 02:54:22;;;;;;;205.00;77.83;;;2.70;99.90;4.70;95899.00;;;;5434970;26;20559;-68
2024/04/18 02:57:10;;;;;;;198.97;75.50;;;2.70;99.90;4.30;95900.00;;;;5434050;26;20469;-68
2024/04/18 03:00:02;;;;;;;190.83;73.50;;;2.60;99.90;4.30;95908.00;;;;5425301;26;20545;-69
2024/04/18 03:02:50;;;;;;;197.17;73.03;;;2.50;99.90;4.10;95890.00;;;;5429550;26;20860;-69
2024/04/18 03:05:41;;;;;;;210.07;72.77;;;2.40;99.90;4.50;95885.00;;;;5429957;26;20458;-69
2024/04/18 03:08:32;;;;;;;213.20;70.87;;;2.40;99.90;4.20;95890.00;;;;5427134;26;20454;-69
2024/04/18 03:11:22;;;;;;;228.27;79.77;;;2.30;99.90;3.90;95872.00;;;;5443181;26;21072;-68
2024/04/18 03:14:10;;;;;;;216.97;77.03;;;2.30;99.90;3.90;95877.00;;;;5441151;26;20530;-69
2024/04/18 03:17:01;;;;;;;195.63;68.67;;;2.20;99.90;3.80;95885.00;;;;5434810;26;20990;-69
2024/04/18 03:19:51;;;;;;;193.47;72.17;;;2.20;99.90;4.10;95880.00;;;;5431971;26;21086;-70
2024/04/18 03:22:44;;;;;;;198.40;72.43;;;2.30;99.90;4.10;95875.00;;;;5439568;26;20517;-68
2024/04/18 03:25:34;;;;;;;197.23;70.83;;;2.30;99.90;4.50;95888.00;;;;5437007;26;20450;-69
2024/04/18 03:28:25;;;;;;;184.60;67.77;;;2.30;99.90;4.00;95883.00;;;;5440094;26;20535;-69
2024/04/18 03:31:13;;;;;;;191.80;69.23;;;2.30;99.90;4.70;95905.00;;;;5431315;26;20450;-69
2024/04/18 03:34:03;;;;;;;193.93;70.13;;;2.30;99.90;4.80;95894.00;;;;5425472;26;20505;-69
2024/04/18 03:36:54;;;;;;;199.60;72.40;;;2.40;99.90;4.60;95899.00;;;;5442010;26;20458;-69
2024/04/18 03:39:45;;;;;;;201.00;74.43;;;2.50;99.90;4.50;95892.00;;;;5438216;26;20462;-69
2024/04/18 03:42:38;;;;;;;200.77;71.23;;;2.50;99.90;4.60;95891.00;;;;5441710;26;20518;-67
2024/04/18 03:45:29;;;;;;;199.13;72.10;;;2.50;99.90;4.50;95887.00;;;;5435817;26;20552;-68
2024/04/18 03:48:20;;;;;;;196.77;69.20;;;2.50;99.90;4.20;95893.00;;;;5422565;26;20877;-69
2024/04/18 03:51:10;;;;;;;202.47;73.03;;;2.40;99.90;4.40;95895.00;;;;5442134;26;20538;-68
2024/04/18 03:53:58;;;;;;;198.40;69.07;;;2.40;99.90;4.80;95897.00;;;;5447456;26;20858;-70
2024/04/18 03:56:49;;;;;;;202.50;72.03;;;2.50;99.90;5.20;95908.00;;;;5446988;26;20517;-68
2024/04/18 03:59:39;;;;;;;208.93;73.77;;;2.60;99.90;5.20;95912.00;;;;5443432;26;20509;-69
2024/04/18 04:02:30;;;;;;;213.70;74.67;;;2.70;99.90;5.10;95916.00;;;;5432894;26;20519;-69
2024/04/18 04:05:18;;;;;;;218.83;77.67;;;2.80;99.90;5.10;95918.00;;;;5432445;26;21064;-68
2024/04/18 04:08:09;;;;;;;212.27;77.73;;;2.80;99.90;5.10;95924.00;;;;5431597;26;21088;-68
2024/04/18 04:10:57;;;;;;;196.37;71.40;;;2.80;99.90;5.10;95930.00;;;;5438840;26;20551;-69
2024/04/18 04:13:48;;;;;;;194.77;72.40;;;2.80;99.90;5.10;95927.00;;;;5443655;26;20454;-70
2024/04/18 04:16:38;;;;;;;194.80;73.50;;;2.80;99.90;4.80;95919.00;;;;5439491;26;20547;-69
2024/04/18 04:19:29;;;;;;;194.53;70.60;;;2.80;99.90;4.90;95918.00;;;;5445032;26;20462;-69
2024/04/18 04:22:17;;;;;;;215.17;80.17;;;2.70;99.90;5.10;95918.00;;;;5443134;26;20466;-70
2024/04/18 04:25:08;;;;;;;206.27;74.17;;;2.80;99.90;5.20;95922.00;;;;5440262;26;20518;-70
2024/04/18 04:27:56;;;;;;;221.67;78.07;;;2.80;99.90;5.10;95919.00;;;;5446019;26;20512;-70
2024/04/18 04:30:46;;;;;;;217.83;74.33;;;2.80;99.90;4.90;95923.00;;;;5439007;26;20518;-70
2024/04/18 04:33:40;;;;;;;215.60;71.73;;;2.80;99.90;4.60;95920.00;;;;5446026;26;20511;-70
2024/04/18 04:36:28;;;;;;;222.60;74.53;;;2.80;99.90;4.90;95931.00;;;;5439229;26;20450;-70
2024/04/18 04:39:18;;;;;;;242.43;82.07;;;2.80;99.90;5.20;95932.00;;;;5440930;26;20466;-70
2024/04/18 04:42:06;;;;;;;244.50;85.07;;;2.90;99.90;5.50;95935.00;;;;5439826;26;21078;-69
2024/04/18 04:44:57;;;;;;;362.37;107.93;;;3.00;99.90;5.30;95931.00;;;;5434262;26;20847;-70
2024/04/18 04:47:45;;;;;;;306.10;89.10;;;3.10;99.90;5.70;95939.00;;;;5445402;26;20233;-70
2024/04/18 04:50:40;;;;;;;287.63;85.87;;;3.20;99.90;5.70;95942.00;;;;5439682;26;20523;-69
2024/04/18 04:53:28;;;;;;;368.88;120.03;;;3.20;99.90;5.40;95936.00;;;;5434785;26;20356;-69
2024/04/18 04:56:19;;;;;;;395.05;143.15;;;3.40;99.90;5.40;95936.00;;;;5432912;26;20351;-70
2024/04/18 04:59:07;;;;;;;335.43;97.03;;;3.40;99.90;5.70;95953.00;;;;5436848;26;20613;-69
2024/04/18 05:01:58;;;;;;;318.60;90.93;;;3.50;99.90;5.80;95940.00;;;;5443935;26;20528;-69
2024/04/18 05:04:46;;;;;;;306.50;87.73;;;3.50;99.90;5.80;95957.00;;;;5444750;26;20547;-69
2024/04/18 05:07:39;;;;;;;307.73;90.97;;;3.60;99.90;5.60;95949.00;;;;5440693;26;20543;-69
2024/04/18 05:10:27;;;;;;;293.90;78.77;;;3.60;99.90;5.70;95958.00;;;;5428875;26;20503;-69
2024/04/18 05:13:19;;;;;;;287.23;84.23;;;3.60;99.90;5.60;95962.00;;;;5424262;26;20454;-69
2024/04/18 05:16:07;;;;;;;283.07;83.43;;;3.70;99.90;6.20;95956.00;;;;5432637;26;21013;-69
2024/04/18 05:18:58;;;;;;;286.47;81.80;;;3.70;99.90;6.40;95962.00;;;;5435609;26;20566;-69
2024/04/18 05:21:46;;;;;;;287.70;83.93;;;3.80;99.90;6.50;95971.00;;;;5438642;26;21072;-69
2024/04/18 05:24:39;;;;;;;282.80;82.80;;;4.00;99.90;6.90;95956.00;;;;5437947;26;21062;-69
2024/04/18 05:27:27;;;;;;;295.83;88.57;;;4.20;99.90;6.60;95965.00;;;;5439228;26;20589;-69
2024/04/18 05:33:30;;;;;;;295.10;85.23;;;4.40;99.90;7.10;95960.00;;;;5434181;26;20470;-69
2024/04/18 05:36:20;;;;;;;307.83;90.60;;;4.60;99.90;7.80;95974.00;;;;5439282;26;20579;-69
2024/04/18 05:39:11;;;;;;;306.07;84.17;;;4.80;99.90;8.20;95984.00;;;;5434219;26;20453;-69
2024/04/18 05:42:05;;;;;;;322.97;88.87;;;5.00;99.90;7.90;95974.00;;;;5431961;26;20507;-69
2024/04/18 05:44:55;;;;;;;314.87;85.90;;;5.20;99.90;8.30;95970.00;;;;5438831;26;21090;-69
2024/04/18 05:47:46;;;;;;;325.90;90.73;;;5.40;99.90;8.30;95973.00;;;;5438303;26;20458;-69
2024/04/18 05:50:37;;;;;;;309.83;86.37;;;5.60;99.90;8.60;95966.00;;;;5438954;26;20519;-69
2024/04/18 05:53:28;;;;;;;318.53;91.80;;;5.80;99.90;9.00;95977.00;;;;5439151;26;20522;-69
2024/04/18 05:56:19;;;;;;;323.77;96.27;;;6.00;99.90;9.30;95981.00;;;;5439256;26;20454;-69
2024/04/18 05:59:12;;;;;;;328.67;91.87;;;6.20;99.90;9.60;95985.00;;;;5441259;26;20232;-69
2024/04/18 06:02:03;;;;;;;320.27;91.00;;;6.40;99.90;9.90;95989.00;;;;5434704;26;20300;-69
2024/04/18 06:04:53;;;;;;;322.30;92.37;;;6.60;99.90;10.20;95994.00;;;;5444142;26;20371;-69
2024/04/18 06:07:44;;;;;;;324.83;93.63;;;6.90;99.90;10.30;96007.00;;;;5435861;26;20289;-69
2024/04/18 06:10:37;;;;;;;329.00;93.80;;;7.10;99.90;10.40;96005.00;;;;5427470;26;20242;-69
2024/04/18 06:13:27;;;;;;;331.40;94.63;;;7.30;99.90;10.30;96004.00;;;;5445230;26;20300;-69
2024/04/18 06:16:21;;;;;;;328.83;92.20;;;7.40;99.90;10.20;96014.00;;;;5435282;26;20233;-69
2024/04/18 06:19:12;;;;;;;342.00;101.27;;;7.40;99.90;10.30;96019.00;;;;5440603;26;20698;-70
2024/04/18 06:22:03;;;;;;;336.27;95.57;;;7.40;99.90;10.30;96014.00;;;;5428060;26;20241;-69
2024/04/18 06:24:53;;;;;;;338.97;94.67;;;7.50;99.90;10.50;96015.00;;;;5427013;26;20276;-69
2024/04/18 06:27:44;;;;;;;340.03;93.17;;;7.60;99.90;10.70;96023.00;;;;5444924;26;20289;-69
2024/04/18 06:30:35;;;;;;;341.50;92.30;;;7.70;99.90;10.80;96018.00;;;;5429665;26;20290;-69
2024/04/18 06:33:29;;;;;;;348.17;97.00;;;7.80;99.90;11.10;96013.00;;;;5435368;26;20308;-69
2024/04/18 06:36:20;;;;;;;345.33;97.70;;;8.00;99.90;11.30;96028.00;;;;5428366;26;20631;-69
2024/04/18 06:39:11;;;;;;;394.63;173.90;;;8.10;99.90;11.10;96011.00;;;;5420117;26;20329;-70
2024/04/18 06:42:01;;;;;;;358.20;121.23;;;8.20;99.90;11.50;96026.00;;;;5437294;26;20237;-69
2024/04/18 06:44:52;;;;;;;353.10;113.73;;;8.40;99.90;11.70;96015.00;;;;5433548;26;20233;-70
2024/04/18 06:47:43;;;;;;;352.60;112.13;;;8.60;99.90;11.50;96029.00;;;;5445371;26;20280;-69
2024/04/18 06:50:37;;;;;;;343.63;106.20;;;8.60;99.90;11.60;96030.00;;;;5433698;26;20236;-70
2024/04/18 06:53:28;;;;;;;347.73;107.23;;;8.70;99.90;12.00;96035.00;;;;5420533;26;20233;-70
2024/04/18 06:56:18;;;;;;;352.43;109.63;;;8.80;99.90;11.90;96024.00;;;;5429144;26;20228;-70
2024/04/18 06:59:10;;;;;;;360.33;126.90;;;9.00;99.90;12.40;96025.00;;;;5439423;26;20288;-70
2024/04/18 07:02:01;;;;;;;357.13;110.87;;;9.20;99.90;12.00;96025.00;;;;5437144;26;20313;-70
2024/04/18 07:04:51;;;;;;;354.47;108.37;;;9.30;99.90;11.90;96023.00;;;;5440650;26;20236;-70
2024/04/18 07:07:45;;;;;;;358.33;111.23;;;9.30;99.90;12.30;96022.00;;;;5419953;26;20284;-70
2024/04/18 07:10:36;;;;;;;387.00;248.13;;;9.40;99.90;12.60;96035.00;;;;5428681;26;20276;-70
2024/04/18 07:13:27;;;;;;;460.85;411.08;;;9.50;99.90;12.10;96038.00;;;;5432728;26;21073;-70
2024/04/18 07:16:17;;;;;;;374.37;135.43;;;9.50;99.90;12.20;96039.00;;;;5440583;26;20233;-70
2024/04/18 07:19:08;;;;;;;363.33;121.70;;;9.60;99.90;11.70;96028.00;;;;5428548;26;20287;-69
2024/04/18 07:21:59;;;;;;;362.57;116.87;;;9.50;99.90;11.80;96031.00;;;;5430118;26;20242;-69
2024/04/18 07:24:52;;;;;;;355.80;113.60;;;9.40;99.90;11.10;96040.00;;;;5441598;26;20304;-69
2024/04/18 07:27:44;;;;;;;355.23;113.50;;;9.30;99.90;11.50;96048.00;;;;5434065;26;20688;-69
2024/04/18 07:30:35;;;;;;;354.00;108.80;;;9.20;99.90;12.10;96050.00;;;;5447129;26;20717;-69
2024/04/18 07:33:26;;;;;;;355.40;108.77;;;9.30;99.90;12.20;96040.00;;;;5439353;26;20306;-69
2024/04/18 07:36:21;;;;;;;357.23;112.50;;;9.30;99.90;12.60;96041.00;;;;5432145;26;20279;-69
2024/04/18 07:39:11;;;;;;;359.50;109.37;;;9.50;99.90;13.10;96042.00;;;;5430153;26;20287;-69
2024/04/18 07:42:05;;;;;;;353.63;109.03;;;9.70;99.90;13.00;96051.00;;;;5430460;26;20240;-69
2024/04/18 07:44:55;;;;;;;355.77;110.53;;;9.90;99.90;13.00;96060.00;;;;5445106;26;20232;-70
2024/04/18 07:47:47;;;;;;;355.93;111.97;;;10.00;99.90;13.10;96058.00;;;;5439862;26;20769;-69
2024/04/18 07:50:38;;;;;;;354.73;113.50;;;10.00;99.90;12.50;96060.00;;;;5440136;26;20703;-70
2024/04/18 07:53:29;;;;;;;354.23;110.63;;;10.00;99.90;12.40;96066.00;;;;5432438;26;20230;-69
2024/04/18 07:56:19;;;;;;;361.53;119.97;;;9.90;99.90;12.70;96079.00;;;;5436421;26;20228;-69
2024/04/18 07:59:13;;;;;;;364.03;152.93;;;9.90;99.90;12.70;96080.00;;;;5441414;26;20288;-69
2024/04/18 08:02:04;;;;;;;360.00;128.63;;;9.90;99.90;12.60;96079.00;;;;5448150;26;20241;-69
2024/04/18 08:04:55;;;;;;;351.70;107.73;;;9.80;99.90;12.30;96076.00;;;;5443433;26;20244;-69
2024/04/18 08:07:46;;;;;;;355.23;113.53;;;9.70;99.90;12.60;96088.00;;;;5424944;26;21056;-70
2024/04/18 08:10:39;;;;;;;352.20;116.47;;;9.70;99.90;12.80;96086.00;;;;5425455;26;20234;-69
2024/04/18 08:13:31;;;;;;;353.23;110.57;;;9.70;99.90;12.60;96084.00;;;;5436996;26;20629;-70
2024/04/18 08:16:24;;;;;;;359.33;111.70;;;9.70;99.90;12.70;96093.00;;;;5436317;26;20229;-70
2024/04/18 08:19:15;;;;;;;356.77;109.43;;;9.80;99.90;12.50;96094.00;;;;5441214;26;20272;-70
2024/04/18 08:22:06;;;;;;;355.27;112.10;;;9.80;99.90;12.10;96099.00;;;;5439677;26;20275;-70
2024/04/18 08:24:57;;;;;;;356.30;127.77;;;9.70;99.90;11.90;96100.00;;;;5447199;26;20296;-70
2024/04/18 08:27:48;;;;;;;353.90;110.27;;;9.50;99.90;11.30;96099.00;;;;5446794;26;20232;-70
2024/04/18 08:30:39;;;;;;;354.43;123.63;;;9.30;99.90;11.80;96118.00;;;;5440287;26;20233;-70
2024/04/18 08:33:32;;;;;;;352.37;108.50;;;9.20;99.90;11.50;96119.00;;;;5436175;26;20308;-70
2024/04/18 08:36:23;;;;;;;357.23;110.30;;;9.20;99.90;11.10;96127.00;;;;5437532;26;20793;-70
2024/04/18 08:39:15;;;;;;;355.13;110.17;;;9.00;99.90;10.80;96140.00;;;;5425186;26;20278;-70
2024/04/18 08:42:08;;;;;;;350.40;101.50;;;8.80;99.90;10.70;96149.00;;;;5430939;26;20770;-70
2024/04/18 08:44:59;;;;;;;344.90;99.20;;;8.60;99.90;10.60;96128.00;;;;5438473;26;20310;-70
2024/04/18 08:47:50;;;;;;;353.73;103.07;;;8.40;99.90;10.40;96138.00;;;;5441290;26;20229;-69
2024/04/18 08:50:44;;;;;;;346.30;101.97;;;8.30;99.90;10.20;96129.00;;;;5446720;26;20581;-70
2024/04/18 08:53:35;;;;;;;350.10;102.10;;;8.20;99.90;10.00;96138.00;;;;5424717;26;20284;-70
2024/04/18 08:56:26;;;;;;;351.00;104.87;;;8.00;99.90;9.90;96141.00;;;;5432910;26;20233;-70
2024/04/18 08:59:17;;;;;;;348.27;104.70;;;8.00;99.90;10.30;96157.00;;;;5441666;26;20278;-70
2024/04/18 09:02:09;;;;;;;342.37;92.03;;;7.90;99.90;10.40;96135.00;;;;5424790;26;20283;-69
2024/04/18 09:05:01;;;;;;;343.53;95.33;;;7.90;99.90;11.00;96140.00;;;;5438158;26;20230;-70
2024/04/18 09:07:54;;;;;;;358.53;124.23;;;8.00;99.90;11.30;96134.00;;;;5437818;26;20280;-70
2024/04/18 09:10:45;;;;;;;359.97;102.60;;;8.20;99.90;11.70;96141.00;;;;5434066;26;20627;-71
2024/04/18 09:13:36;;;;;;;348.57;96.93;;;;;11.50;96138.00;;;;5445525;26;20297;-70
2024/04/18 09:16:27;;;;;;;351.73;100.73;;;8.70;99.90;11.30;96139.00;;;;5442691;26;20286;-70
2024/04/18 09:19:18;;;;;;;349.77;100.70;;;8.70;99.90;11.80;96139.00;;;;5428710;26;20292;-70
2024/04/18 09:22:11;;;;;;;349.07;100.60;;;8.80;99.90;12.00;96145.00;;;;5424102;26;20280;-70
2024/04/18 09:25:08;;;;;;;345.23;98.70;;;8.90;99.90;11.80;96141.00;;;;5429770;26;22218;-70
2024/04/18 09:27:59;;;;;;;351.57;103.00;;;9.10;99.90;12.00;96136.00;;;;5444768;26;20296;-70
2024/04/18 09:30:55;;;;;;;348.60;101.30;;;9.20;99.90;12.00;96129.00;;;;5442030;26;20282;-71
2024/04/18 09:33:46;;;;;;;355.30;111.10;;;9.30;99.90;12.90;96116.00;;;;5438078;26;20279;-70
2024/04/18 09:36:39;;;;;;;349.20;106.70;;;9.50;99.90;13.70;96129.00;;;;5445897;26;20660;-70
2024/04/18 09:39:31;;;;;;;347.47;107.83;;;9.90;99.90;13.70;96128.00;;;;5444541;26;20789;-70
2024/04/18 09:42:40;;;;;;;359.53;119.37;;;10.30;99.90;14.00;96120.00;;;;5445185;26;20237;-70
2024/04/18 09:45:47;;;;;;;353.83;113.93;;;10.60;99.90;14.50;96136.00;;;;5444870;26;20277;-70
2024/04/18 09:48:38;;;;;;;355.93;118.73;;;10.90;99.90;14.40;96136.00;;;;5438856;26;20233;-70
2024/04/18 09:51:30;;;;;;;359.87;122.13;;;11.10;99.90;14.10;96134.00;;;;5443525;26;20343;-70
2024/04/18 09:54:22;;;;;;;366.10;124.40;;;11.20;99.90;14.10;96133.00;;;;5443735;26;20240;-70
2024/04/18 09:57:13;;;;;;;368.77;129.73;;;11.30;99.90;14.40;96144.00;;;;5432499;26;20299;-70
2024/04/18 10:00:11;;;;;;;362.80;126.53;;;11.30;99.90;14.50;96142.00;;;;5430116;26;20273;-70
2024/04/18 10:03:05;;;;;;;368.87;128.77;;;11.40;99.90;15.00;96125.00;;;;5428698;26;20726;-71
2024/04/18 10:06:01;;;;;;;366.20;129.47;;;11.50;99.90;15.60;96113.00;;;;5445365;26;20280;-70
2024/04/18 10:08:54;;;;;;;367.23;130.03;;;12.00;99.90;16.00;96140.00;;;;5440590;26;20279;-71
2024/04/18 10:11:45;;;;;;;376.27;139.10;;;;;17.00;96133.00;;;;5431930;26;20281;-70
2024/04/18 10:14:38;;;;;;;373.70;145.37;;;;;17.40;96113.00;;;;5440153;26;20301;-70
2024/04/18 10:17:33;;;;;;;398.07;161.37;;;;;17.10;96130.00;;;;5430217;26;20312;-70
2024/04/18 10:20:30;;;;;;;381.30;155.03;;;;;17.60;96109.00;;;;5439601;26;20777;-70
2024/04/18 10:23:21;;;;;;;380.83;156.60;;;;;18.90;96110.00;;;;5438864;26;20233;-70
2024/04/18 10:26:16;;;;;;;379.40;163.83;;;;;18.20;96107.00;;;;5443854;26;20221;-71
2024/04/18 10:29:07;;;;;;;377.70;170.10;;;;;17.80;96105.00;;;;5437618;26;20237;-71
2024/04/18 10:31:59;;;;;;;382.40;174.40;;;;;16.90;96134.00;;;;5438681;26;20274;-70
2024/04/18 10:34:54;;;;;;;381.97;182.23;;;;;13.10;96131.00;;;;5438052;26;20295;-68
2024/04/18 10:37:54;;;;;;;365.70;171.43;;;;;15.00;96150.00;;;;5439836;26;20233;-69
2024/04/18 10:41:01;;;;;;;364.50;163.83;;;;;15.60;96122.00;;;;5436047;26;20333;-70
2024/04/18 10:43:54;;;;;;;366.13;158.40;;;;;15.90;96147.00;;;;5443245;26;20299;-70
2024/04/18 10:46:45;;;;;;;369.80;163.90;;;;;16.00;96154.00;;;;5443528;26;20800;-70
2024/04/18 10:49:38;;;;;;;375.93;160.70;;;;;15.10;96141.00;;;;5438498;26;20289;-70
2024/04/18 10:52:31;;;;;;;378.13;159.30;;;;;14.40;96146.00;;;;5436818;26;20308;-70
2024/04/18 10:55:25;;;;;;;377.40;155.83;;;;;15.30;96114.00;;;;5435020;26;20279;-70
2024/04/18 10:58:16;;;;;;;381.60;152.10;;;;;16.00;96126.00;;;;5443905;26;20228;-70
2024/04/18 11:01:07;;;;;;;370.67;146.73;;;;;15.20;96109.00;;;;5447600;26;20274;-70
2024/04/18 11:03:59;;;;;;;408.27;170.20;;;;;17.10;96118.00;;;;5440336;26;20571;-71
2024/04/18 11:06:50;;;;;;;383.97;156.90;;;;;17.50;96129.00;;;;5436884;26;20348;-71
2024/04/18 11:09:44;;;;;;;395.80;166.97;;;;;16.80;96142.00;;;;5432183;26;20279;-70
2024/04/18 11:12:35;;;;;;;391.73;171.83;;;;;17.40;96123.00;;;;5437560;26;20955;-71
2024/04/18 11:15:27;;;;;;;393.73;182.20;;;;;17.80;96133.00;;;;5443424;26;20650;-71
2024/04/18 11:18:18;;;;;;;396.00;181.10;;;;;17.10;96142.00;;;;5441314;26;20639;-70
2024/04/18 11:21:09;;;;;;;381.93;183.03;;;;;15.50;96124.00;;;;5444854;26;20292;-70
2024/04/18 11:24:00;;;;;;;387.80;169.53;;;;;16.90;96141.00;;;;5443994;26;20575;-70
2024/04/18 11:26:55;;;;;;;378.47;167.03;;;;;17.40;96132.00;;;;5439848;26;20228;-70
2024/04/18 11:29:50;;;;;;;391.87;182.93;;;;;16.30;96148.00;;;;5440634;26;20240;-69
2024/04/18 11:32:41;;;;;;;388.73;177.83;;;;;17.10;96127.00;;;;5444966;26;20232;-69
2024/04/18 11:35:32;;;;;;;384.00;176.57;;;;;18.50;96131.00;;;;5443033;26;20292;-70
2024/04/18 11:38:23;;;;;;;401.73;192.07;;;;;16.80;96128.00;;;;5442874;26;20280;-70
2024/04/18 11:41:14;;;;;;;398.97;194.73;;;;;17.60;96138.00;;;;5444472;26;20284;-71
2024/04/18 11:44:10;;;;;;;388.10;191.93;;;;;17.70;96138.00;;;;5441102;26;20279;-70
2024/04/18 11:47:01;;;;;;;396.00;197.80;;;;;18.00;96156.00;;;;5441536;26;20706;-70
2024/04/18 11:49:52;;;;;;;394.80;200.67;;;;;17.50;96162.00;;;;5441246;26;20237;-71
2024/04/18 11:52:43;;;;;;;385.20;191.20;;;;;16.30;96155.00;;;;5440491;26;20279;-70
2024/04/18 11:55:34;;;;;;;385.57;196.27;;;;;16.20;96167.00;;;;5443335;26;20579;-70
2024/04/18 11:58:25;;;;;;;388.57;196.67;;;;;16.90;96173.00;;;;5440415;26;20285;-70
2024/04/18 12:01:18;;;;;;;389.87;185.83;;;;;16.30;96176.00;;;;5442291;26;20229;-70
2024/04/18 12:04:10;;;;;;;370.87;176.37;;;;;16.00;96173.00;;;;5442342;26;20843;-70
2024/04/18 12:07:01;;;;;;;377.20;179.53;;;;;16.50;96178.00;;;;5442333;26;20883;-70
2024/04/18 12:09:54;;;;;;;378.00;179.03;;;;;16.50;96178.00;;;;5446067;26;20220;-69
2024/04/18 12:12:45;;;;;;;378.40;170.73;;;;;15.60;96166.00;;;;5426217;26;20267;-70
2024/04/18 12:15:36;;;;;;;380.43;167.17;;;;;16.10;96164.00;;;;5439270;26;20643;-70
2024/04/18 12:18:30;;;;;;;396.70;183.33;;;;;16.50;96176.00;;;;5438245;26;20252;-70
2024/04/18 12:21:21;;;;;;;385.33;171.33;;;;;16.20;96153.00;;;;5440647;26;20229;-70
2024/04/18 12:24:12;;;;;;;381.90;160.27;;;;;16.70;96141.00;;;;5442760;26;20307;-70
2024/04/18 12:27:02;;;;;;;376.13;170.50;;;;;17.40;96164.00;;;;5440203;26;20300;-70
2024/04/18 12:29:53;;;;;;;377.93;176.17;;;;;17.80;96166.00;;;;5436410;26;20229;-70
2024/04/18 12:32:44;;;;;;;384.90;178.10;;;;;14.50;96160.00;;;;5442274;26;20267;-70
2024/04/18 12:35:38;;;;;;;384.27;180.70;;;;;16.20;96145.00;;;;5444111;26;20793;-70
2024/04/18 12:38:29;;;;;;;389.07;177.00;;;;;17.20;96158.00;;;;5439640;26;20304;-70
2024/04/18 12:41:19;;;;;;;435.02;360.13;;;;;17.10;96165.00;;;;5436228;26;20369;-70